Time;durP1;ratioP1;P1;durP2;ratioP2;P2;SDS_P1;SDS_P2;PMS_P1;PMS_P2;Temp;Humidity;BMP_temperature;BMP_pressure;BME280_temperature;BME280_humidity;BME280_pressure;Samples;Min_cycle;Max_cycle;Signal;HPM_P1;HPM_P2
2024/03/28 00:02:08;;;;;;;2.33;2.10;;;7.00;93.20;;;;;;5005398;28;20053;-90
2024/03/28 00:04:34;;;;;;;3.05;1.90;;;7.00;93.00;;;;;;4995085;28;20121;-92
2024/03/28 00:07:00;;;;;;;2.78;2.30;;;7.00;93.00;;;;;;4994863;28;20221;-94
2024/03/28 00:09:26;;;;;;;3.45;1.70;;;7.00;93.00;;;;;;5000698;28;20038;-91
2024/03/28 00:11:52;;;;;;;3.42;2.45;;;7.00;93.00;;;;;;4999583;28;20022;-91
2024/03/28 00:14:18;;;;;;;3.70;2.05;;;7.00;93.00;;;;;;4989526;28;20512;-93
2024/03/28 00:16:45;;;;;;;4.93;3.10;;;6.90;92.60;;;;;;4995566;28;20102;-92
2024/03/28 00:19:11;;;;;;;3.50;2.65;;;6.90;92.80;;;;;;5000710;28;20030;-93
2024/03/28 00:21:37;;;;;;;3.85;3.38;;;6.80;92.80;;;;;;4992079;28;20089;-93
2024/03/28 00:24:03;;;;;;;5.57;3.97;;;6.80;93.00;;;;;;4996023;28;20049;-93
2024/03/28 00:26:29;;;;;;;4.05;3.08;;;6.60;93.20;;;;;;4998275;28;20045;-93
2024/03/28 00:28:57;;;;;;;5.85;3.28;;;6.60;93.70;;;;;;4997638;28;20489;-92
2024/03/28 00:31:23;;;;;;;8.43;4.93;;;6.50;94.30;;;;;;5001859;28;20021;-93
2024/03/28 00:33:48;;;;;;;7.72;4.45;;;6.40;94.60;;;;;;4991149;28;20508;-93
2024/03/28 00:36:14;;;;;;;8.13;4.07;;;6.30;95.20;;;;;;5008853;28;20018;-92
2024/03/28 00:38:40;;;;;;;4.97;3.72;;;6.20;95.40;;;;;;5010095;28;20319;-91
2024/03/28 00:41:06;;;;;;;6.25;3.70;;;6.20;95.70;;;;;;5005756;28;20239;-93
2024/03/28 00:43:31;;;;;;;4.15;2.80;;;6.20;95.60;;;;;;5003964;28;20496;-92
2024/03/28 00:46:00;;;;;;;3.75;2.50;;;6.10;95.50;;;;;;5000709;28;20502;-94
2024/03/28 00:48:26;;;;;;;4.90;3.00;;;6.00;95.70;;;;;;5013961;28;20038;-91
2024/03/28 00:50:55;;;;;;;7.05;4.93;;;6.00;96.30;;;;;;5003058;28;20025;-93
2024/03/28 00:53:21;;;;;;;7.82;4.75;;;6.00;96.20;;;;;;5004156;28;20037;-94
2024/03/28 00:55:48;;;;;;;7.00;4.22;;;5.80;97.00;;;;;;5006059;28;20404;-91
2024/03/28 00:58:14;;;;;;;5.40;3.97;;;5.90;97.20;;;;;;5002884;28;20018;-91
2024/03/28 01:00:40;;;;;;;8.05;3.58;;;5.80;97.30;;;;;;5006308;28;20022;-89
2024/03/28 01:03:06;;;;;;;5.25;3.33;;;5.70;97.10;;;;;;5008351;28;20608;-90
2024/03/28 01:05:33;;;;;;;4.85;2.70;;;5.70;96.50;;;;;;5011484;28;20034;-92
2024/03/28 01:07:58;;;;;;;4.75;3.95;;;5.60;96.30;;;;;;5008932;28;20034;-90
2024/03/28 01:10:24;;;;;;;4.28;3.90;;;5.60;96.80;;;;;;4998962;28;20420;-91
2024/03/28 01:12:50;;;;;;;3.92;2.75;;;5.60;97.20;;;;;;5006468;28;20022;-94
2024/03/28 01:15:17;;;;;;;4.43;2.88;;;5.60;97.20;;;;;;5001798;28;20037;-94
2024/03/28 01:17:43;;;;;;;5.57;2.85;;;5.60;96.60;;;;;;5007081;28;20042;-91
2024/03/28 01:20:09;;;;;;;4.80;3.05;;;5.60;96.90;;;;;;5003891;28;20026;-93
2024/03/28 01:22:34;;;;;;;4.53;2.40;;;5.40;96.70;;;;;;5000652;28;20022;-90
2024/03/28 01:25:00;;;;;;;4.18;2.92;;;5.40;97.30;;;;;;5003205;28;20042;-93
2024/03/28 01:27:26;;;;;;;3.28;2.17;;;5.30;97.70;;;;;;5008326;28;20030;-90
2024/03/28 01:29:52;;;;;;;3.70;3.33;;;5.20;97.20;;;;;;5001122;28;20089;-92
2024/03/28 01:32:19;;;;;;;3.15;2.85;;;5.00;98.60;;;;;;5006942;28;20023;-92
2024/03/28 01:34:48;;;;;;;2.83;2.63;;;5.00;98.50;;;;;;5003562;28;20022;-93
2024/03/28 01:37:14;;;;;;;3.63;2.92;;;4.90;99.30;;;;;;5004152;28;20026;-92
2024/03/28 01:39:40;;;;;;;3.00;2.65;;;5.00;99.10;;;;;;5005378;28;20435;-92
2024/03/28 01:42:08;;;;;;;3.83;2.47;;;4.90;98.70;;;;;;5005543;28;20038;-91
2024/03/28 01:44:36;;;;;;;4.35;2.35;;;4.80;99.00;;;;;;5011190;28;20030;-92
2024/03/28 01:47:04;;;;;;;3.53;2.70;;;4.70;99.10;;;;;;5001545;28;20026;-93
2024/03/28 01:49:30;;;;;;;;;;;4.70;98.90;;;;;;5002799;28;20038;-92
2024/03/28 01:51:56;;;;;;;2.72;1.83;;;4.70;99.00;;;;;;5002312;28;19964;-94
2024/03/28 01:54:22;;;;;;;2.65;2.25;;;4.70;99.10;;;;;;5002114;28;20109;-92
2024/03/28 01:56:48;;;;;;;3.45;3.00;;;4.80;98.70;;;;;;4998092;28;20023;-91
2024/03/28 01:59:15;;;;;;;2.88;2.67;;;4.70;98.90;;;;;;5009561;28;20033;-90
2024/03/28 02:01:44;;;;;;;3.03;2.42;;;4.60;97.60;;;;;;5007466;28;20709;-92
2024/03/28 02:04:10;;;;;;;4.13;2.58;;;4.60;97.90;;;;;;5008838;28;20030;-89
2024/03/28 02:06:37;;;;;;;3.50;3.17;;;4.60;98.50;;;;;;5004584;28;20034;-90
2024/03/28 02:09:03;;;;;;;2.65;2.45;;;4.60;99.00;;;;;;5005945;28;20044;-96
2024/03/28 02:11:31;;;;;;;4.07;3.78;;;4.60;98.90;;;;;;5026064;28;20026;-91
2024/03/28 02:13:57;;;;;;;4.10;2.67;;;4.50;98.40;;;;;;5007397;28;20048;-91
2024/03/28 02:16:23;;;;;;;3.80;2.90;;;4.50;98.60;;;;;;5005910;28;20656;-92
2024/03/28 02:18:48;;;;;;;5.78;3.10;;;4.40;99.50;;;;;;5002399;28;20045;-90
2024/03/28 02:21:14;;;;;;;5.55;3.40;;;4.40;99.90;;;;;;5003622;28;20049;-91
2024/03/28 02:23:40;;;;;;;2.95;2.65;;;4.40;99.90;;;;;;5004239;28;20034;-92
2024/03/28 02:26:05;;;;;;;3.45;2.75;;;4.30;99.90;;;;;;5002183;28;20575;-92
2024/03/28 02:28:34;;;;;;;3.03;2.67;;;4.40;99.90;;;;;;4991972;28;20053;-91
2024/03/28 02:31:01;;;;;;;3.80;2.97;;;4.30;99.90;;;;;;5000225;28;20026;-93
2024/03/28 02:33:26;;;;;;;5.78;3.05;;;4.20;99.90;;;;;;5000232;28;20110;-92
2024/03/28 02:35:52;;;;;;;3.85;2.58;;;4.20;99.90;;;;;;5004962;28;20064;-92
2024/03/28 02:38:18;;;;;;;4.20;2.35;;;4.20;99.90;;;;;;5001390;28;20046;-91
2024/03/28 02:40:45;;;;;;;3.80;2.53;;;4.10;99.90;;;;;;4999025;28;20094;-91
2024/03/28 02:43:10;;;;;;;3.08;2.75;;;4.00;99.90;;;;;;5003481;28;20022;-91
2024/03/28 02:45:37;;;;;;;2.33;2.13;;;3.90;99.90;;;;;;5002920;28;20603;-92
2024/03/28 02:48:04;;;;;;;6.88;3.10;;;3.90;99.90;;;;;;4996521;28;20034;-91
2024/03/28 02:50:29;;;;;;;4.53;2.95;;;3.90;99.90;;;;;;4995967;28;20038;-91
2024/03/28 02:52:55;;;;;;;2.25;2.05;;;3.80;99.90;;;;;;4994280;28;20022;-91
2024/03/28 02:55:20;;;;;;;6.28;2.55;;;3.70;99.90;;;;;;5000905;28;20041;-91
2024/03/28 02:57:46;;;;;;;2.95;2.40;;;3.60;99.90;;;;;;5006950;28;20033;-91
2024/03/28 03:00:12;;;;;;;4.20;2.75;;;3.60;99.90;;;;;;5001160;28;20037;-92
2024/03/28 03:02:38;;;;;;;3.10;2.58;;;3.50;99.90;;;;;;5002942;28;20030;-92
2024/03/28 03:05:04;;;;;;;3.72;2.50;;;3.50;99.90;;;;;;5000766;28;20033;-91
2024/03/28 03:07:29;;;;;;;3.92;3.00;;;3.40;99.90;;;;;;4995375;28;20488;-92
2024/03/28 03:09:55;;;;;;;2.90;2.55;;;3.40;99.90;;;;;;4993606;28;20731;-91
2024/03/28 03:12:21;;;;;;;3.03;2.50;;;3.50;99.90;;;;;;5009357;28;20032;-91
2024/03/28 03:14:49;;;;;;;3.05;2.67;;;3.40;99.90;;;;;;4997930;28;20030;-92
2024/03/28 03:17:15;;;;;;;3.13;2.25;;;3.50;99.90;;;;;;5010226;28;20078;-91
2024/03/28 03:19:40;;;;;;;3.47;2.83;;;3.50;99.90;;;;;;5000006;28;20157;-92
2024/03/28 03:22:06;;;;;;;2.97;2.67;;;3.50;99.90;;;;;;4999171;28;20641;-92
2024/03/28 03:24:35;;;;;;;4.22;2.70;;;3.40;99.90;;;;;;4991190;28;20041;-93
2024/03/28 03:27:04;;;;;;;5.90;2.22;;;3.30;99.90;;;;;;4994548;28;20097;-91
2024/03/28 03:34:58;;;;;;;3.53;2.95;;;3.20;99.90;;;;;;5000981;28;20033;-92
2024/03/28 03:37:25;;;;;;;7.78;2.75;;;3.30;99.90;;;;;;5000132;28;20018;-91
2024/03/28 03:40:05;;;;;;;6.57;2.70;;;3.30;99.90;;;;;;4999046;28;20408;-91
2024/03/28 03:42:31;;;;;;;4.05;2.45;;;3.10;99.90;;;;;;5005709;28;20113;-92
2024/03/28 03:44:56;;;;;;;4.78;2.75;;;3.00;99.90;;;;;;4998762;28;20488;-92
2024/03/28 03:47:22;;;;;;;3.35;2.80;;;3.00;99.90;;;;;;4998872;28;20034;-91
2024/03/28 03:49:48;;;;;;;4.60;3.03;;;3.00;99.90;;;;;;4999623;28;20027;-91
2024/03/28 03:52:17;;;;;;;3.67;2.97;;;2.90;99.90;;;;;;4999719;28;20054;-94
2024/03/28 03:54:43;;;;;;;3.15;2.58;;;2.90;99.90;;;;;;5004102;28;20034;-91
2024/03/28 03:57:09;;;;;;;3.50;2.90;;;3.00;99.90;;;;;;4994506;28;20035;-93
2024/03/28 03:59:36;;;;;;;3.00;2.28;;;3.10;99.90;;;;;;4999204;28;20026;-91
2024/03/28 04:02:02;;;;;;;4.57;4.20;;;3.10;99.90;;;;;;5000911;28;20057;-91
2024/03/28 04:04:28;;;;;;;4.82;3.05;;;3.10;99.90;;;;;;4999075;28;20377;-89
2024/03/28 04:06:55;;;;;;;4.60;2.45;;;3.10;99.90;;;;;;5007300;28;20030;-92
2024/03/28 04:09:21;;;;;;;3.47;2.30;;;3.10;99.90;;;;;;5002345;28;20057;-92
2024/03/28 04:11:47;;;;;;;3.95;3.15;;;3.20;99.90;;;;;;5010813;28;20018;-92
2024/03/28 04:14:13;;;;;;;4.65;3.63;;;3.20;99.90;;;;;;4994685;28;20046;-91
2024/03/28 04:16:39;;;;;;;4.32;3.28;;;3.10;99.90;;;;;;4995908;28;20026;-90
2024/03/28 04:19:05;;;;;;;3.40;2.20;;;2.90;99.90;;;;;;4999652;28;20026;-91
2024/03/28 04:21:34;;;;;;;4.57;3.38;;;2.90;99.90;;;;;;4999781;28;20164;-92
2024/03/28 04:24:00;;;;;;;4.05;2.72;;;2.80;99.90;;;;;;4996619;28;20022;-92
2024/03/28 04:26:26;;;;;;;3.58;2.47;;;2.80;99.90;;;;;;4994588;28;20065;-92
2024/03/28 04:28:52;;;;;;;4.05;3.33;;;2.90;99.90;;;;;;4989991;28;20713;-92
2024/03/28 04:31:17;;;;;;;4.75;2.38;;;2.90;99.90;;;;;;5002518;28;20033;-91
2024/03/28 04:33:43;;;;;;;4.05;3.53;;;2.80;99.90;;;;;;5000338;28;20111;-92
2024/03/28 04:36:09;;;;;;;4.57;2.67;;;2.80;99.90;;;;;;5009665;28;20034;-91
2024/03/28 04:38:36;;;;;;;2.92;2.63;;;2.90;99.90;;;;;;4999357;28;20037;-90
2024/03/28 04:41:03;;;;;;;5.53;4.07;;;2.90;99.90;;;;;;4994119;28;20035;-92
2024/03/28 04:43:29;;;;;;;3.17;2.88;;;2.80;99.90;;;;;;5001493;28;20049;-91
2024/03/28 04:45:54;;;;;;;4.05;2.88;;;2.70;99.90;;;;;;5007350;28;20041;-91
2024/03/28 04:48:20;;;;;;;5.13;3.28;;;2.70;99.90;;;;;;5006052;28;20034;-90
2024/03/28 04:50:46;;;;;;;3.33;2.53;;;2.60;99.90;;;;;;4998224;28;20486;-92
2024/03/28 04:53:11;;;;;;;3.33;3.13;;;2.50;99.90;;;;;;5007264;28;20022;-92
2024/03/28 04:55:37;;;;;;;4.45;3.63;;;2.40;99.90;;;;;;4999764;28;20053;-94
2024/03/28 04:58:03;;;;;;;4.38;3.55;;;2.40;99.90;;;;;;4998299;28;20026;-93
2024/03/28 05:00:28;;;;;;;4.10;3.65;;;2.50;99.90;;;;;;4992541;28;20018;-92
2024/03/28 05:02:54;;;;;;;3.55;2.67;;;2.50;99.90;;;;;;4994462;28;20032;-92
2024/03/28 05:05:20;;;;;;;7.13;3.78;;;2.50;99.90;;;;;;5002359;28;20057;-89
2024/03/28 05:07:46;;;;;;;5.35;3.72;;;2.40;99.90;;;;;;4998613;28;20015;-91
2024/03/28 05:10:12;;;;;;;7.32;3.67;;;2.30;99.90;;;;;;5000005;28;20041;-93
2024/03/28 05:12:37;;;;;;;4.15;3.75;;;2.40;99.90;;;;;;4997567;28;20484;-93
2024/03/28 05:15:03;;;;;;;3.13;2.83;;;2.40;99.90;;;;;;4987716;28;20022;-92
2024/03/28 05:17:29;;;;;;;5.35;3.25;;;2.50;99.90;;;;;;4998314;28;20099;-90
2024/03/28 05:19:54;;;;;;;3.28;2.90;;;2.40;99.90;;;;;;5000443;28;20030;-91
2024/03/28 05:22:20;;;;;;;6.07;4.20;;;2.50;99.90;;;;;;4999888;28;20532;-90
2024/03/28 05:24:46;;;;;;;4.28;3.55;;;2.50;99.90;;;;;;5003257;28;20117;-91
2024/03/28 05:27:15;;;;;;;6.72;4.47;;;2.50;99.90;;;;;;5003119;28;20034;-93
2024/03/28 05:29:41;;;;;;;5.32;4.28;;;2.70;99.90;;;;;;5001049;28;20517;-92
2024/03/28 05:32:09;;;;;;;10.23;4.50;;;2.80;99.90;;;;;;5006022;28;20029;-92
2024/03/28 05:34:35;;;;;;;22.60;13.07;;;2.80;99.90;;;;;;5003522;28;20081;-93
2024/03/28 05:37:01;;;;;;;17.58;10.98;;;3.00;99.90;;;;;;5000962;28;20060;-92
2024/03/28 05:39:28;;;;;;;11.85;10.00;;;3.10;99.90;;;;;;5001190;28;20034;-92
2024/03/28 05:41:54;;;;;;;6.93;6.10;;;3.10;99.90;;;;;;5002112;28;20432;-92
2024/03/28 05:44:19;;;;;;;6.63;3.92;;;3.20;99.90;;;;;;5008177;28;20056;-92
2024/03/28 05:46:45;;;;;;;7.90;4.22;;;3.20;99.90;;;;;;5004482;28;20460;-92
2024/03/28 05:49:11;;;;;;;5.72;3.67;;;3.10;99.90;;;;;;5006334;28;20555;-91
2024/03/28 05:51:36;;;;;;;6.85;4.18;;;3.20;99.90;;;;;;5007587;28;20057;-93
2024/03/28 05:54:02;;;;;;;5.90;4.10;;;3.20;99.90;;;;;;5006448;28;20027;-91
2024/03/28 05:56:28;;;;;;;6.43;4.28;;;3.20;99.90;;;;;;5000239;28;20428;-90
2024/03/28 05:58:53;;;;;;;5.63;4.78;;;3.20;99.90;;;;;;4998258;28;20057;-92
2024/03/28 06:01:19;;;;;;;6.53;4.82;;;3.30;99.90;;;;;;5004937;28;20086;-91
2024/03/28 06:03:44;;;;;;;8.38;4.20;;;3.20;99.90;;;;;;5001303;28;20118;-92
2024/03/28 06:06:10;;;;;;;8.95;5.53;;;3.30;99.90;;;;;;5002882;28;20022;-92
2024/03/28 06:08:36;;;;;;;10.30;5.72;;;3.40;99.90;;;;;;5003132;28;20195;-91
2024/03/28 06:11:03;;;;;;;9.70;6.78;;;3.40;99.90;;;;;;5005262;28;20019;-92
2024/03/28 06:13:31;;;;;;;9.40;6.88;;;3.50;99.90;;;;;;4987341;28;20488;-90
2024/03/28 06:15:57;;;;;;;7.72;6.35;;;3.60;99.90;;;;;;4997176;28;20030;-92
2024/03/28 06:18:24;;;;;;;9.63;6.45;;;3.60;99.90;;;;;;5014232;28;20022;-91
2024/03/28 06:21:03;;;;;;;12.15;6.65;;;3.70;99.90;;;;;;5001259;28;20022;-91
2024/03/28 06:23:30;;;;;;;9.95;6.30;;;3.80;99.90;;;;;;5002715;28;20084;-90
2024/03/28 06:25:56;;;;;;;10.48;5.88;;;3.80;99.90;;;;;;5011588;28;20086;-91
2024/03/28 06:28:22;;;;;;;12.52;7.10;;;3.90;99.90;;;;;;5000510;28;20060;-91
2024/03/28 06:30:53;;;;;;;11.82;7.80;;;4.00;99.90;;;;;;5017887;28;20028;-91
2024/03/28 06:33:19;;;;;;;12.00;7.18;;;4.10;99.90;;;;;;5016156;28;20034;-93
2024/03/28 06:35:45;;;;;;;13.35;8.23;;;4.10;99.90;;;;;;5011877;28;20048;-90
2024/03/28 06:38:10;;;;;;;15.13;8.63;;;4.50;99.90;;;;;;4976429;28;20030;-91
2024/03/28 06:40:36;;;;;;;12.63;7.45;;;4.40;99.90;;;;;;4985547;28;20131;-91
2024/03/28 06:43:01;;;;;;;10.85;6.88;;;4.40;99.90;;;;;;4984471;28;20027;-91
2024/03/28 06:45:27;;;;;;;10.93;7.47;;;4.40;99.90;;;;;;4983760;28;20663;-91
2024/03/28 06:47:52;;;;;;;13.32;7.85;;;4.40;99.90;;;;;;4984347;28;20046;-90
2024/03/28 06:50:18;;;;;;;10.88;7.55;;;4.50;99.90;;;;;;4986827;28;20085;-89
2024/03/28 06:52:44;;;;;;;12.05;7.75;;;4.60;99.90;;;;;;4983866;28;20148;-92
2024/03/28 06:55:09;;;;;;;11.93;7.88;;;4.70;99.90;;;;;;4984953;28;20030;-92
2024/03/28 06:57:35;;;;;;;13.65;7.05;;;4.70;99.90;;;;;;4988094;28;20026;-92
2024/03/28 07:00:00;;;;;;;11.65;8.52;;;4.70;99.90;;;;;;4983620;28;20100;-92
2024/03/28 07:02:26;;;;;;;10.95;6.95;;;4.70;99.90;;;;;;4982354;28;20149;-90
2024/03/28 07:04:52;;;;;;;10.52;7.43;;;4.60;99.90;;;;;;4985335;28;20436;-91
2024/03/28 07:07:17;;;;;;;11.15;6.75;;;4.60;99.90;;;;;;4984693;28;20451;-92
2024/03/28 07:09:43;;;;;;;11.60;6.85;;;4.60;99.90;;;;;;4984362;28;20052;-92
2024/03/28 07:12:08;;;;;;;10.07;6.60;;;4.60;99.90;;;;;;4984250;28;20026;-91
2024/03/28 07:14:34;;;;;;;9.02;6.25;;;4.70;99.90;;;;;;4985971;28;20043;-91
2024/03/28 07:17:00;;;;;;;9.77;6.15;;;4.70;99.90;;;;;;4986746;28;20033;-91
2024/03/28 07:19:25;;;;;;;8.10;6.30;;;4.80;99.90;;;;;;4993280;28;20076;-91
2024/03/28 07:21:51;;;;;;;9.98;5.72;;;4.90;99.90;;;;;;4984722;28;20062;-90
2024/03/28 07:24:17;;;;;;;8.90;5.90;;;5.10;99.90;;;;;;4983066;28;20034;-91
2024/03/28 07:26:43;;;;;;;10.00;6.03;;;5.20;99.90;;;;;;4983426;28;20164;-91
2024/03/28 07:29:08;;;;;;;6.97;5.85;;;5.20;99.90;;;;;;4986938;28;20042;-91
2024/03/28 07:31:34;;;;;;;6.43;5.32;;;5.30;99.90;;;;;;4980346;28;20041;-91
2024/03/28 07:34:00;;;;;;;7.90;5.78;;;5.20;99.90;;;;;;4984263;28;20215;-91
2024/03/28 07:36:26;;;;;;;6.80;4.90;;;5.30;99.90;;;;;;4984300;28;20535;-92
2024/03/28 07:38:52;;;;;;;7.32;4.22;;;5.30;99.90;;;;;;4983439;28;20053;-91
2024/03/28 07:41:18;;;;;;;4.50;3.10;;;5.30;99.90;;;;;;4984112;28;20042;-91
2024/03/28 07:43:45;;;;;;;5.35;4.72;;;5.40;99.90;;;;;;4989633;28;20077;-92
2024/03/28 07:46:13;;;;;;;5.57;3.28;;;5.40;99.90;;;;;;4990318;28;20038;-93
2024/03/28 07:48:38;;;;;;;3.78;3.47;;;5.40;99.90;;;;;;4994248;28;20042;-93
2024/03/28 07:51:04;;;;;;;5.47;2.88;;;5.60;99.90;;;;;;4996899;28;20030;-93
2024/03/28 07:53:32;;;;;;;5.25;2.88;;;5.60;99.90;;;;;;4995448;28;20066;-92
2024/03/28 07:55:58;;;;;;;5.63;3.63;;;5.60;99.90;;;;;;4994288;28;20022;-91
2024/03/28 07:58:27;;;;;;;2.90;2.55;;;5.70;99.90;;;;;;4992073;28;20419;-92
2024/03/28 08:01:01;;;;;;;4.43;3.78;;;5.70;99.90;;;;;;4988751;28;20054;-92
2024/03/28 08:03:27;;;;;;;4.80;3.80;;;5.70;99.90;;;;;;4988143;28;20052;-92
2024/03/28 08:05:52;;;;;;;7.60;3.50;;;5.80;99.90;;;;;;4991449;28;20122;-93
2024/03/28 08:08:18;;;;;;;4.40;3.08;;;5.80;99.90;;;;;;4990193;28;20057;-91
2024/03/28 08:10:44;;;;;;;5.20;3.97;;;5.90;99.90;;;;;;4992295;28;20034;-94
2024/03/28 08:13:10;;;;;;;5.25;3.22;;;5.90;99.90;;;;;;4991869;28;20026;-94
2024/03/28 08:15:37;;;;;;;5.93;3.55;;;6.00;99.90;;;;;;4994525;28;20608;-92
2024/03/28 08:18:03;;;;;;;5.35;3.10;;;6.10;99.90;;;;;;4995537;28;20018;-94
2024/03/28 08:20:29;;;;;;;5.75;4.28;;;6.10;99.90;;;;;;4993174;28;20030;-93
2024/03/28 08:22:59;;;;;;;6.28;4.15;;;6.10;99.90;;;;;;4993127;28;20038;-93
2024/03/28 08:25:25;;;;;;;4.75;2.92;;;6.10;99.90;;;;;;4994750;28;20034;-92
2024/03/28 08:27:52;;;;;;;5.30;2.97;;;6.20;99.90;;;;;;4989582;28;20034;-92
2024/03/28 08:30:19;;;;;;;7.20;3.25;;;6.20;99.90;;;;;;4988723;28;20045;-95
2024/03/28 08:32:45;;;;;;;4.30;3.08;;;6.30;99.90;;;;;;4987824;28;20022;-93
2024/03/28 08:35:10;;;;;;;2.67;2.25;;;6.40;99.90;;;;;;4987580;28;20113;-93
2024/03/28 08:37:39;;;;;;;2.42;1.88;;;6.60;99.90;;;;;;4987285;28;20034;-94
2024/03/28 08:40:11;;;;;;;1.95;1.55;;;6.70;99.90;;;;;;4988902;28;20105;-91
2024/03/28 08:42:38;;;;;;;2.28;1.48;;;7.00;99.90;;;;;;4987564;28;20039;-93
2024/03/28 08:45:05;;;;;;;3.20;1.83;;;7.20;99.90;;;;;;4985555;28;20139;-93
2024/03/28 08:47:30;;;;;;;1.60;1.50;;;7.30;99.90;;;;;;4989755;28;20022;-91
2024/03/28 08:49:57;;;;;;;2.03;1.83;;;7.40;99.90;;;;;;4988008;28;20097;-92
2024/03/28 08:52:23;;;;;;;1.63;1.45;;;7.50;99.90;;;;;;4987738;28;20651;-91
2024/03/28 08:54:49;;;;;;;3.50;2.10;;;7.60;99.90;;;;;;4987085;28;20026;-91
2024/03/28 08:57:14;;;;;;;2.53;1.80;;;7.60;99.90;;;;;;4992317;28;20030;-90
2024/03/28 08:59:40;;;;;;;2.83;2.13;;;7.60;99.90;;;;;;4996125;28;20076;-92
2024/03/28 09:02:07;;;;;;;1.83;1.73;;;7.70;99.90;;;;;;4995665;28;20732;-91
2024/03/28 09:04:33;;;;;;;2.17;1.80;;;7.70;99.90;;;;;;4992691;28;20031;-93
2024/03/28 09:07:00;;;;;;;1.33;1.10;;;7.80;99.90;;;;;;4989312;28;20080;-91
2024/03/28 09:09:26;;;;;;;1.60;1.40;;;7.80;99.90;;;;;;4991524;28;20046;-93
2024/03/28 09:11:51;;;;;;;1.65;1.55;;;8.00;98.90;;;;;;4988151;28;20106;-93
2024/03/28 09:14:17;;;;;;;1.75;1.27;;;8.10;99.30;;;;;;4994379;28;20274;-91
2024/03/28 09:16:43;;;;;;;1.52;1.42;;;8.10;96.10;;;;;;4992217;28;20049;-94
2024/03/28 09:19:08;;;;;;;7.20;1.33;;;8.10;97.70;;;;;;4995896;28;20090;-89
2024/03/28 09:21:34;;;;;;;2.47;1.55;;;8.10;94.70;;;;;;4990193;28;20031;-89
2024/03/28 09:24:00;;;;;;;1.42;1.25;;;8.30;96.00;;;;;;4987363;28;20030;-87
2024/03/28 09:26:25;;;;;;;1.60;1.13;;;8.40;95.50;;;;;;4990649;28;20045;-85
2024/03/28 09:28:57;;;;;;;2.38;1.20;;;8.40;93.70;;;;;;4990785;28;20030;-89
2024/03/28 09:31:22;;;;;;;2.58;1.23;;;8.70;93.10;;;;;;4985991;28;20035;-87
2024/03/28 09:33:48;;;;;;;1.55;1.45;;;8.90;93.70;;;;;;4987725;28;20120;-90
2024/03/28 09:36:16;;;;;;;1.27;1.20;;;9.30;93.00;;;;;;4989307;28;20084;-90
2024/03/28 09:38:44;;;;;;;2.10;1.10;;;9.40;87.70;;;;;;4989172;28;20026;-88
2024/03/28 09:41:30;;;;;;;1.58;0.85;;;9.40;88.60;;;;;;4985381;28;20030;-88
2024/03/28 09:44:10;;;;;;;3.10;1.13;;;9.40;88.20;;;;;;4988111;28;20045;-89
2024/03/28 09:46:36;;;;;;;1.17;0.68;;;9.40;87.30;;;;;;4986665;28;20045;-88
2024/03/28 09:49:02;;;;;;;2.42;0.95;;;9.40;85.60;;;;;;4990006;28;20038;-92
2024/03/28 09:51:30;;;;;;;1.38;1.00;;;9.60;84.50;;;;;;4987654;28;20048;-90
2024/03/28 09:53:59;;;;;;;0.75;0.52;;;9.80;81.90;;;;;;4989570;28;20565;-88
2024/03/28 09:56:27;;;;;;;1.45;0.85;;;9.80;83.10;;;;;;4988928;28;20022;-88
2024/03/28 09:58:52;;;;;;;1.30;1.20;;;10.10;82.60;;;;;;4991417;28;20028;-89
2024/03/28 10:01:18;;;;;;;1.33;1.20;;;10.30;77.00;;;;;;4988175;28;20073;-88
2024/03/28 10:03:53;;;;;;;4.13;1.55;;;10.30;79.30;;;;;;4992063;28;20049;-88
2024/03/28 10:06:20;;;;;;;1.25;1.20;;;10.50;77.80;;;;;;4987325;28;20524;-88
2024/03/28 10:08:46;;;;;;;1.40;1.10;;;10.60;78.60;;;;;;4985378;28;20023;-90
2024/03/28 10:11:12;;;;;;;1.00;0.98;;;10.80;73.60;;;;;;4984584;28;20037;-90
2024/03/28 10:13:38;;;;;;;1.02;0.82;;;10.90;74.40;;;;;;4989006;28;20048;-90
2024/03/28 10:16:06;;;;;;;5.15;1.35;;;11.00;73.20;;;;;;4987436;28;20615;-90
2024/03/28 10:18:32;;;;;;;;;;;11.30;72.40;;;;;;4985637;28;20030;-90
2024/03/28 10:21:02;;;;;;;2.13;1.05;;;11.50;74.80;;;;;;4986159;28;19926;-89
2024/03/28 10:23:30;;;;;;;2.08;0.98;;;11.80;73.40;;;;;;4987981;28;20018;-91
2024/03/28 10:25:57;;;;;;;1.23;0.65;;;11.80;66.30;;;;;;4988350;28;20034;-91
2024/03/28 10:28:24;;;;;;;0.98;0.45;;;11.90;65.40;;;;;;4988110;28;20109;-91
2024/03/28 10:30:51;;;;;;;4.63;1.15;;;11.50;64.50;;;;;;4986561;28;20031;-88
2024/03/28 10:33:17;;;;;;;0.77;0.65;;;11.20;65.00;;;;;;4987509;28;20027;-91
2024/03/28 10:35:58;;;;;;;1.23;0.63;;;11.20;65.30;;;;;;4988965;28;20045;-92
2024/03/28 10:38:24;;;;;;;1.73;0.60;;;11.50;68.00;;;;;;4989564;28;20470;-91
2024/03/28 10:40:51;;;;;;;1.85;1.00;;;11.80;62.20;;;;;;4987128;28;20069;-93
2024/03/28 10:43:17;;;;;;;1.00;0.75;;;11.70;65.20;;;;;;4985333;28;20089;-88
2024/03/28 10:45:44;;;;;;;1.05;0.73;;;11.70;65.20;;;;;;4988321;28;20035;-92
2024/03/28 10:48:15;;;;;;;3.40;1.00;;;12.00;62.60;;;;;;4989076;28;20065;-87
2024/03/28 10:50:47;;;;;;;1.60;1.50;;;11.60;66.70;;;;;;4985492;28;20082;-93
2024/03/28 10:53:24;;;;;;;0.73;0.73;;;11.40;70.90;;;;;;4986322;28;20034;-91
2024/03/28 10:55:59;;;;;;;3.85;1.17;;;11.20;73.00;;;;;;4988466;28;20094;-93
2024/03/28 10:58:26;;;;;;;0.88;0.88;;;11.30;74.10;;;;;;4986183;28;20037;-92
2024/03/28 11:00:53;;;;;;;1.25;0.73;;;11.20;67.60;;;;;;4986699;28;20047;-91
2024/03/28 11:03:19;;;;;;;;;;;11.30;65.60;;;;;;4987018;28;20119;-90
2024/03/28 11:05:45;;;;;;;1.02;0.88;;;11.20;66.40;;;;;;5024437;28;20279;-92
2024/03/28 11:08:13;;;;;;;1.67;0.70;;;11.10;71.70;;;;;;4988556;28;20225;-89
2024/03/28 11:10:40;;;;;;;1.60;0.52;;;11.00;75.30;;;;;;4982865;28;20467;-89
2024/03/28 11:13:07;;;;;;;0.95;0.93;;;10.60;76.00;;;;;;4985863;28;20029;-93
2024/03/28 11:15:32;;;;;;;1.05;1.05;;;10.60;77.30;;;;;;4987441;28;20029;-89
2024/03/28 11:17:58;;;;;;;0.98;0.80;;;10.90;79.20;;;;;;4984249;28;20034;-91
2024/03/28 11:20:27;;;;;;;1.10;0.95;;;11.30;72.20;;;;;;4985753;28;20058;-90
2024/03/28 11:23:02;;;;;;;5.25;1.65;;;11.70;72.70;;;;;;4986348;28;20033;-91
2024/03/28 11:25:31;;;;;;;2.30;0.95;;;11.90;70.40;;;;;;4988561;28;20034;-88
2024/03/28 11:28:03;;;;;;;2.00;0.77;;;12.10;67.40;;;;;;4983135;28;21042;-91
2024/03/28 11:30:29;;;;;;;1.38;1.27;;;12.20;68.00;;;;;;4985026;28;20049;-89
2024/03/28 11:33:06;;;;;;;0.88;0.70;;;12.40;67.50;;;;;;4986317;28;20022;-89
2024/03/28 11:35:32;;;;;;;0.85;0.60;;;11.80;65.10;;;;;;4987973;28;20112;-90
2024/03/28 11:38:13;;;;;;;1.77;1.00;;;11.40;67.60;;;;;;4984158;28;20528;-92
2024/03/28 11:40:39;;;;;;;1.30;0.85;;;11.40;68.20;;;;;;4984659;28;20026;-88
2024/03/28 11:43:19;;;;;;;0.77;0.77;;;11.70;69.30;;;;;;4987571;28;20038;-90
2024/03/28 11:46:05;;;;;;;0.90;0.88;;;12.00;62.50;;;;;;4989352;28;20130;-89
2024/03/28 11:48:38;;;;;;;2.67;0.65;;;11.80;62.20;;;;;;4988830;28;20026;-91
2024/03/28 11:51:05;;;;;;;3.00;0.85;;;11.70;63.30;;;;;;4984862;28;20524;-88
2024/03/28 11:53:40;;;;;;;1.25;1.13;;;12.20;63.70;;;;;;4986424;28;20041;-88
2024/03/28 11:56:07;;;;;;;1.05;0.70;;;12.60;59.90;;;;;;4987013;28;20024;-93
2024/03/28 11:58:33;;;;;;;1.15;0.43;;;12.90;58.60;;;;;;4984455;28;20504;-91
2024/03/28 12:01:03;;;;;;;1.23;1.15;;;13.10;57.70;;;;;;4986308;28;20073;-87
2024/03/28 12:03:29;;;;;;;1.08;1.02;;;12.80;56.10;;;;;;4989481;28;20050;-91
2024/03/28 12:05:56;;;;;;;0.80;0.40;;;13.20;56.50;;;;;;4989858;28;20106;-92
2024/03/28 12:08:27;;;;;;;1.77;1.02;;;13.30;56.00;;;;;;4990348;28;20033;-89
2024/03/28 12:10:59;;;;;;;1.58;1.42;;;12.90;56.00;;;;;;4991247;28;20014;-90
2024/03/28 12:13:25;;;;;;;3.13;0.95;;;13.10;59.80;;;;;;4990386;28;20030;-89
2024/03/28 12:15:58;;;;;;;1.33;1.10;;;13.60;55.50;;;;;;4987887;28;20500;-89
2024/03/28 12:18:25;;;;;;;2.67;0.82;;;13.80;52.50;;;;;;4985460;28;20112;-88
2024/03/28 12:21:01;;;;;;;0.70;0.50;;;13.90;54.40;;;;;;4985020;28;20034;-88
2024/03/28 12:23:28;;;;;;;0.45;0.45;;;14.10;52.30;;;;;;4985669;28;20102;-88
2024/03/28 12:25:53;;;;;;;1.23;0.75;;;14.20;49.70;;;;;;4986786;28;20446;-87
2024/03/28 12:28:23;;;;;;;0.35;0.35;;;14.40;47.20;;;;;;4983254;28;20114;-88
2024/03/28 12:30:54;;;;;;;0.63;0.63;;;14.30;46.80;;;;;;4982823;28;20050;-89
2024/03/28 12:33:20;;;;;;;0.30;0.30;;;13.80;43.30;;;;;;4985471;28;20080;-88
2024/03/28 12:35:54;;;;;;;1.20;0.50;;;14.00;43.60;;;;;;4984995;28;20061;-87
2024/03/28 12:38:20;;;;;;;0.75;0.73;;;14.10;45.20;;;;;;4980936;28;20038;-89
2024/03/28 12:40:53;;;;;;;2.22;0.60;;;14.20;48.40;;;;;;4982200;28;20030;-90
2024/03/28 12:43:23;;;;;;;0.47;0.47;;;14.20;45.00;;;;;;4984430;28;20580;-88
2024/03/28 12:46:00;;;;;;;0.90;0.77;;;14.40;41.50;;;;;;4982211;28;20711;-85
2024/03/28 12:48:26;;;;;;;0.80;0.80;;;14.80;38.90;;;;;;4984323;28;20061;-85
2024/03/28 12:50:52;;;;;;;0.60;0.60;;;14.70;39.50;;;;;;4985844;28;20026;-87
2024/03/28 12:53:19;;;;;;;0.60;0.57;;;14.80;38.50;;;;;;4987840;28;20041;-86
2024/03/28 12:55:45;;;;;;;6.28;0.55;;;15.00;40.80;;;;;;4987438;28;20018;-89
2024/03/28 12:58:11;;;;;;;1.15;0.52;;;15.30;40.70;;;;;;4986558;28;20038;-86
2024/03/28 13:00:36;;;;;;;1.67;0.82;;;14.80;39.40;;;;;;4986400;28;20022;-85